It's Thursday,
December 5th, 2019
User not logged in
[Run Race Header Image][Run Race logo]
  
Race webcasting is attempted by race directors and their support staff. Please remember that conditions under which they're working may make it difficult to post timely webcast updates... your interest and patience is appreciated!
Race Information
Race Name:Kettle Moraine Endurance Races 100/100k/50k/38 mile run run
Location:LaGrange
State:Wisconsin, United States
 button: button: Webcast Autoplay
Event Information
Name of Event:Kettle Moraine 100m
Distance:100 Miles
Started Date/Time:Saturday June 1st, 2019, 5:59:59.29 am
button: Assign Numbers  
Checkpoint:Nordic Center 100k
Distance:63.1 Miles
Gun Start Time:Saturday June 1st, 2019 5:59:59.29 am
Calculate Chip Start Time:< not set >
Y or N... Calculate splits based upon participant chip start time?
Allow Early Chip Start Time:< not set >
Y or N... Allow participants a chip start time prior to gun start?
Pos Race
Number
NameAgeSexTimePace 
1222Jon Noll34M9:43:16.19:14.6Sat Jun 1st 3:43:15 pm
2125DAVID HANSEN33M10:28:17.59:57.4Sat Jun 1st 4:28:16 pm
3157Jason Keeler36M11:10:41.610:37.7Sat Jun 1st 5:10:40 pm
4186James Luebke36M11:16:22.110:43.1Sat Jun 1st 5:16:21 pm
5169Jonathan Koscinski38M11:20:23.310:47.0Sat Jun 1st 5:20:22 pm
6139Michael Hinterberg40M11:37:06.311:02.9Sat Jun 1st 5:37:05 pm
7126Jon Hanson42M11:47:27.011:12.7Sat Jun 1st 5:47:26 pm
8322Lisa Wonneberg38F11:48:51.611:14.0Sat Jun 1st 5:48:50 pm
944Stacey Buckley43F11:55:02.811:19.9Sat Jun 1st 5:55:02 pm
10246Tom Rauen36M11:56:00.611:20.8Sat Jun 1st 5:55:59 pm
11134Lindsay Henkels39F12:03:39.211:28.1Sat Jun 1st 6:03:38 pm
12164Scott Klopfenstein48M12:05:31.511:29.9Sat Jun 1st 6:05:30 pm
13173Jon Laack33M12:08:21.511:32.6Sat Jun 1st 6:08:20 pm
1438Curt brey39M12:13:09.011:37.1Sat Jun 1st 6:13:08 pm
15110Bibo Gao41F12:15:16.711:39.2Sat Jun 1st 6:15:16 pm
16215Peeter Muursepp49M12:23:12.611:46.7Sat Jun 1st 6:23:11 pm
172Timothy Adamski30M12:28:50.411:52.1Sat Jun 1st 6:28:49 pm
18282Anthony Steeno39M12:30:27.411:53.6Sat Jun 1st 6:30:26 pm
19255Mike Rohner39M12:31:11.111:54.3Sat Jun 1st 6:31:10 pm
20299John Truelove51M12:34:51.611:57.8Sat Jun 1st 6:34:50 pm
21301David Ulbert61M12:40:27.112:03.1Sat Jun 1st 6:40:26 pm
22201Abe Mendoza42M12:41:06.912:03.7Sat Jun 1st 6:41:06 pm
23325Keith Wurm39M12:44:09.912:06.6Sat Jun 1st 6:44:09 pm
2458Emily Collins40F12:45:52.012:08.2Sat Jun 1st 6:45:51 pm
251William Abel46M12:49:40.912:11.9Sat Jun 1st 6:49:40 pm
2620Jeffrey Lenard53M12:53:44.512:15.7Sat Jun 1st 6:53:43 pm
2732Jamie Blumentritt31F12:55:04.212:17.0Sat Jun 1st 6:55:03 pm
28266Mike Schmitt42M12:55:25.712:17.3Sat Jun 1st 6:55:24 pm
29153Brian Jubeck42M12:55:44.512:17.6Sat Jun 1st 6:55:43 pm
30276David Smith38M12:59:20.312:21.1Sat Jun 1st 6:59:19 pm
31117Matt Granstrom40M13:01:00.612:22.6Sat Jun 1st 7:00:59 pm
3255Anthony Ciske41M13:01:11.712:22.8Sat Jun 1st 7:01:11 pm
33135Lucas Henson34M13:01:33.812:23.2Sat Jun 1st 7:01:33 pm
34309Mike Wallin35M13:01:54.212:23.5Sat Jun 1st 7:01:53 pm
35122Peter Hancovsky22M13:02:04.912:23.7Sat Jun 1st 7:02:04 pm
36217ERIC NELSON42M13:02:17.212:23.9Sat Jun 1st 7:02:16 pm
37312Frayah Wasmund34F13:07:22.612:28.7Sat Jun 1st 7:07:21 pm
3875Tammy Davis40F13:08:07.112:29.4Sat Jun 1st 7:08:06 pm
3923Andrew Barr31M13:08:36.112:29.9Sat Jun 1st 7:08:35 pm
40176Tim Landewe45M13:09:51.612:31.1Sat Jun 1st 7:09:50 pm
4170Jason Crowe46M13:12:59.512:34.0Sat Jun 1st 7:12:58 pm
42315Christine Westcott49F13:15:01.912:36.0Sat Jun 1st 7:15:01 pm
4350Miguel Carreon52M13:20:51.212:41.5Sat Jun 1st 7:20:50 pm
44104Jennifer Freeman38F13:22:25.212:43.0Sat Jun 1st 7:22:24 pm
45150Ray Johnson40M13:22:28.112:43.0Sat Jun 1st 7:22:27 pm
4683John Duncombe42M13:23:26.812:44.0Sat Jun 1st 7:23:26 pm
4777Relena Del Toro Ribbons32F13:29:39.412:49.9Sat Jun 1st 7:29:38 pm
48260Barry Sackett50M13:29:40.812:49.9Sat Jun 1st 7:29:40 pm
4972Kristen Cwik41F13:29:43.012:49.9Sat Jun 1st 7:29:42 pm
5015James Baetz41M13:30:00.512:50.2Sat Jun 1st 7:29:59 pm
51141Russell House22M13:30:45.612:50.9Sat Jun 1st 7:30:44 pm
5260Jess Conboy38M13:34:31.212:54.5Sat Jun 1st 7:34:30 pm
53182Jeff Leuwerke38M13:34:58.612:54.9Sat Jun 1st 7:34:57 pm
54171Predrag Krkic64M13:35:19.112:55.3Sat Jun 1st 7:35:18 pm
55298Ashley Truan35F13:35:51.712:55.8Sat Jun 1st 7:35:51 pm
56219Kurt Neumann44M13:36:46.612:56.7Sat Jun 1st 7:36:45 pm
57245Tony Rajkowski41M13:37:09.812:57.0Sat Jun 1st 7:37:09 pm
5847Rachel Burke34F13:40:26.013:00.1Sat Jun 1st 7:40:25 pm
5985Chris Dwyer39M13:40:46.813:00.5Sat Jun 1st 7:40:46 pm
60148Tony Jensen30M13:43:15.113:02.8Sat Jun 1st 7:43:14 pm
61278Mark Smith40M13:48:25.013:07.7Sat Jun 1st 7:48:24 pm
6252Brian Cavanaugh38M13:49:17.613:08.6Sat Jun 1st 7:49:16 pm
63127Gina Harcrow47F13:49:53.613:09.1Sat Jun 1st 7:49:52 pm
6482Craig Duhn43M13:51:39.113:10.8Sat Jun 1st 7:51:38 pm
65184Erika Lohn46F13:53:27.613:12.5Sat Jun 1st 7:53:26 pm
66256Moriel Rothman-Zecher29M13:56:05.813:15.0Sat Jun 1st 7:56:05 pm
67251Parker Rios52M13:58:29.213:17.3Sat Jun 1st 7:58:28 pm
68181Lori Leonard57F13:59:08.313:17.9Sat Jun 1st 7:59:07 pm
69209Kyle Moss28M13:59:34.313:18.3Sat Jun 1st 7:59:33 pm
70136Ilja Herdt35M14:00:31.413:19.2Sat Jun 1st 8:00:30 pm
71147Christian Jensen41M14:01:57.113:20.6Sat Jun 1st 8:01:56 pm
72138Jason Herrboldt40M14:05:07.813:23.6Sat Jun 1st 8:05:07 pm
73196Candice McMackin46F14:07:17.513:25.7Sat Jun 1st 8:07:16 pm
74241Bryan Powers51M14:11:58.713:30.1Sat Jun 1st 8:11:57 pm
7588Jen Even34F14:15:02.813:33.0Sat Jun 1st 8:15:02 pm
7611Jon Archer35M14:17:15.413:35.1Sat Jun 1st 8:17:14 pm
7751Steven Kuntz41M14:18:46.113:36.6Sat Jun 1st 8:18:45 pm
78235Josh Phillips38M14:20:33.013:38.3Sat Jun 1st 8:20:32 pm
79119Andy Hahn35M14:21:41.113:39.4Sat Jun 1st 8:21:40 pm
80154David Just59M14:21:51.613:39.5Sat Jun 1st 8:21:50 pm
81318Brad Whitson55M14:21:52.813:39.5Sat Jun 1st 8:21:52 pm
82206Matt Monroe47M14:21:55.613:39.6Sat Jun 1st 8:21:54 pm
8349Ausra Butkeviciute42F14:28:17.513:45.6Sat Jun 1st 8:28:16 pm
8440Kurt Brown52M14:29:42.413:47.0Sat Jun 1st 8:29:41 pm
85244Erik Raivo35M14:30:31.713:47.8Sat Jun 1st 8:30:30 pm
86288Paul Swindle39M14:33:22.413:50.5Sat Jun 1st 8:33:21 pm
87214Steve Murray55M14:34:50.213:51.9Sat Jun 1st 8:34:49 pm
88233Jake Peterson29M14:34:50.413:51.9Sat Jun 1st 8:34:49 pm
89146Stacy Jantz27F14:35:46.713:52.8Sat Jun 1st 8:35:45 pm
9078Paul Deuchar43M14:36:24.113:53.3Sat Jun 1st 8:36:23 pm
91179Matthew Lee40M14:36:41.113:53.6Sat Jun 1st 8:36:40 pm
92310Ronghui Wang51M14:37:36.413:54.5Sat Jun 1st 8:37:35 pm
93313Brian Wean37M14:37:57.213:54.8Sat Jun 1st 8:37:56 pm
94118Lanier Greenhaw48M14:39:05.613:55.9Sat Jun 1st 8:39:04 pm
95314Tim Wegner53M14:41:01.313:57.7Sat Jun 1st 8:41:00 pm
96140Laura Hoban39F14:41:40.313:58.4Sat Jun 1st 8:41:39 pm
97223Faye Norby37F14:43:28.514:00.1Sat Jun 1st 8:43:27 pm
98144stephanie hurtado38F14:44:13.714:00.8Sat Jun 1st 8:44:12 pm
99103Steve Fredrickson39M14:46:44.714:03.2Sat Jun 1st 8:46:44 pm
100226Adam Page35M14:47:57.714:04.3Sat Jun 1st 8:47:56 pm
101225Charlie Ortiz39M14:48:11.714:04.6Sat Jun 1st 8:48:11 pm
102195Shannon McFarland43M14:51:09.814:07.4Sat Jun 1st 8:51:09 pm
10392David Files44M14:51:57.314:08.1Sat Jun 1st 8:51:56 pm
104277Malcolm Smith56M14:52:21.514:08.5Sat Jun 1st 8:52:20 pm
10586Stefan Elbel46M14:57:44.314:13.6Sat Jun 1st 8:57:43 pm
106191Panagiotis MALLIARIS53M14:58:07.714:14.0Sat Jun 1st 8:58:06 pm
107317Tony Weyers49M15:00:46.714:16.5Sat Jun 1st 9:00:46 pm
1086Alisha Alness32F15:01:12.314:16.9Sat Jun 1st 9:01:11 pm
10919Laney Baris44F15:03:16.814:18.9Sat Jun 1st 9:03:16 pm
110203Scott Meyers51M15:03:32.014:19.1Sat Jun 1st 9:03:31 pm
11121Michael Barnaby36M15:04:43.714:20.3Sat Jun 1st 9:04:42 pm
112248Jessica Rettig40F15:05:39.514:21.2Sat Jun 1st 9:05:38 pm
11327Brandon Becker42M15:08:57.914:24.3Sat Jun 1st 9:08:57 pm
11422Shaun Barnes47M15:10:45.414:26.0Sat Jun 1st 9:10:44 pm
115237Richard Plezia60M15:11:19.614:26.6Sat Jun 1st 9:11:18 pm
116174Joshua Lacey34M15:11:23.814:26.6Sat Jun 1st 9:11:23 pm
11793Bryan Fillman47M15:11:57.114:27.1Sat Jun 1st 9:11:56 pm
11869Jamie Crouse39F15:14:17.014:29.4Sat Jun 1st 9:14:16 pm
119207Erik Morrell42M15:15:15.514:30.3Sat Jun 1st 9:15:14 pm
120296Jaymz Touchstone51M15:15:31.614:30.5Sat Jun 1st 9:15:30 pm
121304Tim Vanderhoof51M15:17:08.514:32.1Sat Jun 1st 9:17:07 pm
122303Brent Vanderhoof48M15:17:08.614:32.1Sat Jun 1st 9:17:07 pm
12374Heather Davenport52F15:17:42.314:32.6Sat Jun 1st 9:17:41 pm
124193Gregory Marshall29M15:17:53.214:32.8Sat Jun 1st 9:17:52 pm
1259Jeremy Anderson45M15:19:18.314:34.1Sat Jun 1st 9:19:17 pm
126243Meghan Prohaska30F15:24:22.814:39.0Sat Jun 1st 9:24:22 pm
127239Matthew Poore38M15:24:27.614:39.0Sat Jun 1st 9:24:26 pm
128202David Mentjes49M15:24:48.314:39.4Sat Jun 1st 9:24:47 pm
12929Nicole Bernardin39F15:25:13.614:39.8Sat Jun 1st 9:25:12 pm
130252Mary Rittgers38F15:27:40.414:42.1Sat Jun 1st 9:27:39 pm
131102Douglas Franklin38M15:28:00.214:42.4Sat Jun 1st 9:27:59 pm
132113Jeff Goodmanson56M15:29:51.114:44.2Sat Jun 1st 9:29:50 pm
133275Jason Shrontz39M15:32:35.314:46.8Sat Jun 1st 9:32:34 pm
13417Christopher Baldwin46M15:34:11.614:48.3Sat Jun 1st 9:34:10 pm
1357Cheryl Anderson46F15:34:55.314:49.0Sat Jun 1st 9:34:54 pm
136291Jennifer Thoennes37F15:35:38.714:49.7Sat Jun 1st 9:35:38 pm
137213Morgan Murphy42M15:36:10.314:50.2Sat Jun 1st 9:36:09 pm
138161Mike Kenney41M15:36:37.814:50.6Sat Jun 1st 9:36:37 pm
139204Jonathan Mireles35M15:39:38.514:53.5Sat Jun 1st 9:39:37 pm
14035Hope Bollig39F15:40:48.814:54.6Sat Jun 1st 9:40:48 pm
14143Becky Brudwick52F15:43:20.514:57.0Sat Jun 1st 9:43:19 pm
14271Bill Curry39M15:43:52.014:57.5Sat Jun 1st 9:43:51 pm
143268Trudi Schoening40F15:45:10.214:58.7Sat Jun 1st 9:45:09 pm
14473Ronnie Daniel49M15:45:32.414:59.1Sat Jun 1st 9:45:31 pm
145123Geoff Hanley43M15:46:05.414:59.6Sat Jun 1st 9:46:04 pm
146167nathan koehn40M15:46:29.215:00.0Sat Jun 1st 9:46:28 pm
147230Jason Patera43M15:47:36.615:01.1Sat Jun 1st 9:47:35 pm
14853Todd Chandler51M15:48:14.715:01.7Sat Jun 1st 9:48:13 pm
149284Scott Stith37M15:48:17.015:01.7Sat Jun 1st 9:48:16 pm
150106austin frion36M15:50:20.015:03.6Sat Jun 1st 9:50:19 pm
15116Corey Baker49M15:52:19.515:05.5Sat Jun 1st 9:52:18 pm
152319Kim Willison49F15:53:19.015:06.5Sat Jun 1st 9:53:18 pm
15342Jason Brozek39M15:53:55.815:07.1Sat Jun 1st 9:53:55 pm
15491Troy Figgins49M15:54:11.415:07.3Sat Jun 1st 9:54:10 pm
155143jeremy hurm42M15:54:47.615:07.9Sat Jun 1st 9:54:46 pm
156269Ann Scholl49F15:56:47.115:09.8Sat Jun 1st 9:56:46 pm
157250Michael Riordan35M15:58:46.415:11.7Sat Jun 1st 9:58:45 pm
158142Laura Hufschmidt38F15:59:11.815:12.1Sat Jun 1st 9:59:11 pm
159311Ryan Wanless41M16:00:48.515:13.6Sat Jun 1st 10:00:47 pm
160192Nick Mariotti40M16:00:52.615:13.7Sat Jun 1st 10:00:51 pm
161283Sharleen Stevens36F16:01:20.815:14.1Sat Jun 1st 10:01:20 pm
162128Jaime Hardgrove39F16:03:54.615:16.6Sat Jun 1st 10:03:53 pm
163218Mark Nelson50M16:05:49.815:18.4Sat Jun 1st 10:05:49 pm
16463Ryan Cooper43M16:05:59.415:18.5Sat Jun 1st 10:05:58 pm
165293Barry Thrune43M16:07:24.515:19.9Sat Jun 1st 10:07:23 pm
166227John Papiernik34M16:09:24.015:21.8Sat Jun 1st 10:09:23 pm
16787Mike Elsbury35M16:09:25.715:21.8Sat Jun 1st 10:09:24 pm
168212Andrew Murphy35M16:09:29.515:21.9Sat Jun 1st 10:09:28 pm
169211Peter Mulligan53M16:09:44.415:22.1Sat Jun 1st 10:09:43 pm
17046Lucy Burke44F16:09:55.815:22.3Sat Jun 1st 10:09:55 pm
17195David Fischer56M16:10:05.715:22.4Sat Jun 1st 10:10:04 pm
17296Jeremy Fischer42M16:12:32.115:24.8Sat Jun 1st 10:12:31 pm
17313Todd Arnold39M16:14:22.215:26.5Sat Jun 1st 10:14:21 pm
174316Trent Wester34M16:15:38.015:27.7Sat Jun 1st 10:15:37 pm
175145Scott Irwin54M16:15:50.515:27.9Sat Jun 1st 10:15:49 pm
176228Michael Parker34M16:16:37.515:28.6Sat Jun 1st 10:16:36 pm
177112Matt Goff32M16:17:00.015:29.0
178100Sara Foster43F16:17:01.815:29.0Sat Jun 1st 10:17:01 pm
179329Tammy Zyduck54F16:17:05.215:29.1Sat Jun 1st 10:17:04 pm
180180Aurora LeMay31F16:17:07.915:29.1Sat Jun 1st 10:17:07 pm
181279Philip Spicer28M16:19:16.815:31.2Sat Jun 1st 10:19:16 pm
182172Jason Kumlien49M16:20:01.315:31.9Sat Jun 1st 10:20:00 pm
183152Jimmy Jones40M16:20:46.815:32.6Sat Jun 1st 10:20:46 pm
184262Kevin Sas35M16:20:47.715:32.6Sat Jun 1st 10:20:46 pm
18537Ryan Borucki41M16:20:48.615:32.6Sat Jun 1st 10:20:47 pm
18697Tara Flesch40F16:22:22.215:34.1Sat Jun 1st 10:22:21 pm
18739Linda Britz49F16:25:15.015:36.8Sat Jun 1st 10:25:14 pm
18810Scott Anderson37M16:26:25.415:38.0Sat Jun 1st 10:26:24 pm
189264Nick Schaid34M16:26:28.315:38.0Sat Jun 1st 10:26:27 pm
190107Jeni Funk-Miller50F16:28:35.115:40.0Sat Jun 1st 10:28:34 pm
191263Geni Scalio48F16:28:37.815:40.1Sat Jun 1st 10:28:37 pm
192259Daryl Saari56M16:29:12.015:40.6Sat Jun 1st 10:29:11 pm
193197todd mcmillion54M16:29:23.815:40.8Sat Jun 1st 10:29:23 pm
194305Nikki Vapensky Marvel49F16:29:31.415:40.9Sat Jun 1st 10:29:30 pm
19576Sonya Decker52F16:30:17.515:41.6Sat Jun 1st 10:30:16 pm
196200Ryan Menard45M16:30:17.815:41.6Sat Jun 1st 10:30:17 pm
197238Daria Podejko46F16:30:45.415:42.1Sat Jun 1st 10:30:44 pm
1988Jay Anderson46M16:33:45.015:44.9Sat Jun 1st 10:33:44 pm
199272Dan-O Semsel52M16:34:00.515:45.2Sat Jun 1st 10:33:59 pm
200289Christopher Tebeau48M16:35:19.015:46.4Sat Jun 1st 10:35:18 pm
201286Stephen Strauss64M16:37:49.515:48.8Sat Jun 1st 10:37:48 pm
202194Evan McDoniels37M16:38:16.915:49.2Sat Jun 1st 10:38:16 pm
203111Megan Gibson39F16:38:35.815:49.5Sat Jun 1st 10:38:35 pm
20428Tim Belleau53M16:42:40.615:53.4Sat Jun 1st 10:42:39 pm
205270Liz Schumacher37F16:42:41.615:53.4Sat Jun 1st 10:42:40 pm
206205Andrew Mitchel55M16:42:49.215:53.6Sat Jun 1st 10:42:48 pm
207292Paul Thomson45M16:43:37.215:54.3Sat Jun 1st 10:43:36 pm
208210Jen Mullen45F16:45:49.815:56.4Sat Jun 1st 10:45:49 pm
209273Shawn Severson46F16:46:24.915:57.0Sat Jun 1st 10:46:24 pm
210285Arno Stoffel50M16:54:13.516:04.4Sat Jun 1st 10:54:12 pm
2114Sevil Aksoy36F16:54:37.916:04.8Sat Jun 1st 10:54:37 pm
212247Barry Reece49M16:55:11.016:05.3Sat Jun 1st 10:55:10 pm
213216Mack Naber35M16:55:13.616:05.3Sat Jun 1st 10:55:12 pm
21412Anjanette Arnold43F16:55:47.616:05.9Sat Jun 1st 10:55:46 pm
215258Ritzy Running23F16:56:59.816:07.0Sat Jun 1st 10:56:59 pm
216295Joel Toews41M16:57:20.416:07.4Sat Jun 1st 10:57:19 pm
2173Paul Ahearn47M16:57:35.716:07.6Sat Jun 1st 10:57:35 pm
218166Kendra Kneer38F16:59:13.716:09.2Sat Jun 1st 10:59:12 pm
219198COLE MCNABB31M16:59:36.716:09.5Sat Jun 1st 10:59:35 pm
220129Josh Harris33M17:00:12.016:10.1Sat Jun 1st 11:00:11 pm
221254arturo Rodriguez42M17:06:34.716:16.1Sat Jun 1st 11:06:34 pm
222265Dustin Schmidt33M17:07:05.716:16.6Sat Jun 1st 11:07:05 pm
223321torrey wilson28F17:07:50.716:17.3Sat Jun 1st 11:07:49 pm
224170Randy Kreill56M17:08:10.316:17.7Sat Jun 1st 11:08:09 pm
22518Angela Barbera58F17:13:42.716:22.9Sat Jun 1st 11:13:42 pm
226294John Tiwet52M17:16:36.416:25.7Sat Jun 1st 11:16:35 pm
22780John Doyle58M17:19:08.216:28.1Sat Jun 1st 11:19:07 pm
228165Leigh Knaus38F17:20:18.616:29.2Sat Jun 1st 11:20:17 pm
229187Jeffery Lung40M17:27:17.316:35.8Sat Jun 1st 11:27:16 pm
230137Jen Herdzina31F17:28:25.616:36.9Sat Jun 1st 11:28:24 pm
231308Erica Wagner32F17:28:42.616:37.2Sat Jun 1st 11:28:41 pm
23265Carleen Coulter52F17:29:36.316:38.0Sat Jun 1st 11:29:35 pm
233253Tara Roberts39F17:32:19.416:40.6Sat Jun 1st 11:32:18 pm
234177Brian Landstrom67M17:33:51.316:42.1Sat Jun 1st 11:33:50 pm
23534Irina Boggie-Miloserdova59F17:33:51.516:42.1Sat Jun 1st 11:33:50 pm
236116Joe Gow56M17:35:01.216:43.2Sat Jun 1st 11:35:00 pm
237267Andy Schmitz41M17:38:20.216:46.3Sat Jun 1st 11:38:19 pm
23856Ryan Clayton35M17:41:00.516:48.9Sat Jun 1st 11:40:59 pm
239115Kelli Gorski39F17:45:42.016:53.3Sat Jun 1st 11:45:41 pm
240324Kenny Wunder42M17:48:59.216:56.5Sat Jun 1st 11:48:58 pm
24166Ezra Coutre30M17:48:59.716:56.5Sat Jun 1st 11:48:59 pm
242189Jennifer Majewski35F17:50:22.916:57.8Sat Jun 1st 11:50:22 pm
2435Richard Albanese46M17:51:21.816:58.7Sat Jun 1st 11:51:21 pm
244190Elizabeth Male28F17:51:37.016:59.0Sat Jun 1st 11:51:36 pm
24562Jim Cooper50M17:51:48.916:59.2Sat Jun 1st 11:51:48 pm
246323Karen Wray54F17:53:14.417:00.5Sat Jun 1st 11:53:13 pm
247108Carl Galdine46M17:54:35.317:01.8Sat Jun 1st 11:54:34 pm
248130Jason Hastings47M18:03:31.417:10.3Sun Jun 2nd 12:03:30 am
249306Edna Jackeline Vazquez Lung37F18:03:56.317:10.7Sun Jun 2nd 12:03:55 am
250281Josh Stebbins32M18:15:55.017:22.1Sun Jun 2nd 12:15:54 am
251229Philip Parsons40M18:17:19.017:23.4Sun Jun 2nd 12:17:18 am
25248Susan Bush51F18:25:19.117:31.0Sun Jun 2nd 12:25:18 am
253240REGAN POURCHOT59M18:27:58.717:33.5Sun Jun 2nd 12:27:57 am
25464Daniel Cordova40M18:28:12.417:33.8Sun Jun 2nd 12:28:11 am
255242Noah Praetz42M18:37:15.417:42.4Sun Jun 2nd 12:37:14 am
256185Radek Lopusnik45M18:39:14.517:44.3Sun Jun 2nd 12:39:13 am
257257Jeffrey Ruiz53M18:48:00.117:52.6Sun Jun 2nd 12:47:59 am
258320Dennis wilson61M18:53:35.717:57.9Sun Jun 2nd 12:53:35 am
259121Becca Hamm McMillan30F18:58:39.618:02.7Sun Jun 2nd 12:58:38 am
260175Traci Lambert-Cwerenz58F19:03:00.118:06.8Sun Jun 2nd 1:02:59 am
26199Ron Foster52M19:06:41.118:10.4Sun Jun 2nd 1:06:40 am
262101Jenny Fox34F19:13:33.518:16.9Sun Jun 2nd 1:13:32 am
263221kimberly nickel54F19:40:19.018:42.3Sun Jun 2nd 1:40:18 am
264158Evie Kellogg39F20:52:28.419:50.9Sun Jun 2nd 2:52:27 am

Event Information
Name of Event:Kettle Moraine 100k
Distance:100 Kilometers
Started Date/Time:Saturday June 1st, 2019, 5:59:59.29 am
button: Assign Numbers 

Event Information
Name of Event:Kettle Team Relay
Distance:100 Miles
Started Date/Time:Saturday June 1st, 2019, 5:59:59.29 am
button: Assign Numbers 

Event Information
Name of Event:Kettle Moraine 50k
Distance:50 Kilometers
Started Date/Time:Saturday June 1st, 2019, 1:00:00.20 pm
button: Assign Numbers 

Event Information
Name of Event:Kettle 38 mile Fun Run
Distance:38 Miles
Scheduled Date/Time:Saturday June 1, 2019, 5:30 pm
button: Assign Numbers 
2004-2019 : All rights reserved
Terms and Conditions